Time;durP1;ratioP1;P1;durP2;ratioP2;P2;SDS_P1;SDS_P2;PMS_P1;PMS_P2;Temp;Humidity;BMP_temperature;BMP_pressure;BME280_temperature;BME280_humidity;BME280_pressure;Samples;Min_cycle;Max_cycle;Signal;HPM_P1;HPM_P2
2023/09/25 00:00:35;;;;;;;3.70;3.10;;;18.70;99.90;;;;;;5086222;28;20438;-80
2023/09/25 00:03:03;;;;;;;3.50;2.90;;;18.70;99.90;;;;;;5086265;28;20894;-80
2023/09/25 00:05:29;;;;;;;3.17;2.87;;;18.70;99.90;;;;;;5086041;28;20759;-79
2023/09/25 00:07:56;;;;;;;4.07;2.90;;;18.70;99.90;;;;;;5084735;28;20530;-80
2023/09/25 00:10:22;;;;;;;3.83;2.80;;;18.80;99.90;;;;;;5084743;28;20537;-81
2023/09/25 00:12:48;;;;;;;3.13;2.73;;;18.80;99.90;;;;;;5086661;28;20757;-81
2023/09/25 00:15:14;;;;;;;4.00;2.83;;;18.80;99.90;;;;;;5084922;28;20737;-80
2023/09/25 00:17:42;;;;;;;3.53;3.07;;;18.90;99.90;;;;;;5084708;28;20204;-80
2023/09/25 00:20:12;;;;;;;2.70;2.40;;;18.90;99.90;;;;;;5085824;28;20439;-81
2023/09/25 00:22:40;;;;;;;4.30;2.50;;;18.90;99.90;;;;;;5084508;28;21063;-81
2023/09/25 00:25:07;;;;;;;2.73;2.27;;;19.00;99.90;;;;;;5084486;28;20943;-80
2023/09/25 00:27:33;;;;;;;2.77;2.20;;;19.00;99.90;;;;;;5084698;28;20430;-80
2023/09/25 00:30:00;;;;;;;2.63;2.43;;;19.00;99.90;;;;;;5085821;28;20966;-79
2023/09/25 00:32:27;;;;;;;2.60;2.20;;;19.10;99.90;;;;;;5084463;28;20433;-79
2023/09/25 00:34:53;;;;;;;3.60;2.37;;;19.10;99.90;;;;;;5084462;28;20526;-79
2023/09/25 00:37:19;;;;;;;2.63;2.43;;;19.10;99.90;;;;;;5085782;28;21022;-81
2023/09/25 00:39:45;;;;;;;2.40;2.20;;;19.10;99.90;;;;;;5084616;28;20974;-80
2023/09/25 00:42:11;;;;;;;3.20;2.43;;;19.10;99.90;;;;;;5083510;28;20851;-82
2023/09/25 00:44:37;;;;;;;2.63;2.43;;;19.10;99.90;;;;;;5088532;28;20463;-80
2023/09/25 00:47:04;;;;;;;3.13;2.77;;;19.00;99.90;;;;;;5089945;28;20178;-81
2023/09/25 00:49:31;;;;;;;2.47;2.13;;;19.00;99.90;;;;;;5090503;28;20474;-80
2023/09/25 00:51:58;;;;;;;2.60;2.40;;;19.00;99.90;;;;;;5090218;28;20565;-82
2023/09/25 00:54:24;;;;;;;2.57;2.30;;;18.90;99.90;;;;;;5090003;28;20461;-80
2023/09/25 00:56:51;;;;;;;2.43;2.23;;;18.90;99.90;;;;;;5088392;28;20414;-80
2023/09/25 00:59:17;;;;;;;2.73;2.33;;;18.90;99.90;;;;;;5089625;28;20911;-80
2023/09/25 01:01:43;;;;;;;2.73;2.23;;;18.80;99.90;;;;;;5089721;28;20790;-81
2023/09/25 01:04:09;;;;;;;3.23;2.23;;;18.90;99.90;;;;;;5088228;28;20452;-81
2023/09/25 01:06:35;;;;;;;2.87;2.67;;;18.90;99.90;;;;;;5088290;28;20434;-80
2023/09/25 01:09:00;;;;;;;2.10;1.87;;;18.90;99.90;;;;;;5088080;28;21014;-80
2023/09/25 01:11:28;;;;;;;2.87;2.50;;;18.90;99.90;;;;;;5088148;28;20544;-80
2023/09/25 01:13:54;;;;;;;3.27;2.37;;;18.80;99.90;;;;;;5088208;28;20280;-80
2023/09/25 01:16:23;;;;;;;2.50;2.30;;;18.70;99.90;;;;;;5088074;28;20515;-80
2023/09/25 01:18:49;;;;;;;2.73;2.53;;;18.60;99.90;;;;;;5089700;28;20179;-82
2023/09/25 01:21:15;;;;;;;2.80;2.60;;;18.50;99.90;;;;;;5089314;28;20454;-81
2023/09/25 01:23:40;;;;;;;2.80;2.50;;;18.40;99.90;;;;;;5087993;28;20210;-80
2023/09/25 01:26:06;;;;;;;2.90;2.53;;;18.40;99.90;;;;;;5087716;28;20694;-82
2023/09/25 01:28:31;;;;;;;3.27;3.00;;;18.40;99.90;;;;;;5089508;28;20236;-81
2023/09/25 01:30:58;;;;;;;3.73;3.07;;;18.40;99.90;;;;;;5089085;28;20196;-81
2023/09/25 01:33:26;;;;;;;3.57;2.93;;;18.50;99.90;;;;;;5087911;28;20186;-80
2023/09/25 01:35:52;;;;;;;4.10;3.20;;;18.50;99.90;;;;;;5087637;28;20450;-81
2023/09/25 01:38:17;;;;;;;3.43;3.13;;;18.50;99.90;;;;;;5087776;28;20446;-80
2023/09/25 01:40:43;;;;;;;4.90;3.87;;;18.40;99.90;;;;;;5088856;28;20468;-80
2023/09/25 01:43:09;;;;;;;3.77;3.47;;;18.40;99.90;;;;;;5088012;28;20636;-80
2023/09/25 01:45:34;;;;;;;3.90;3.50;;;18.40;99.90;;;;;;5089031;28;20202;-81
2023/09/25 01:48:00;;;;;;;3.40;3.00;;;18.40;99.90;;;;;;5088950;28;20170;-81
2023/09/25 01:50:27;;;;;;;4.03;3.70;;;18.40;99.90;;;;;;5088391;28;20241;-82
2023/09/25 01:52:55;;;;;;;4.50;3.80;;;18.50;99.90;;;;;;5087745;28;20541;-81
2023/09/25 01:55:20;;;;;;;3.80;3.30;;;18.50;99.90;;;;;;5088585;28;20866;-81
2023/09/25 01:57:46;;;;;;;3.77;3.37;;;18.50;99.90;;;;;;5088892;28;20448;-80
2023/09/25 02:00:12;;;;;;;3.40;3.10;;;18.50;99.90;;;;;;5086995;28;20213;-82
2023/09/25 02:02:38;;;;;;;8.10;3.50;;;18.50;99.90;;;;;;5088677;28;20224;-80
2023/09/25 02:05:05;;;;;;;3.10;2.83;;;18.50;99.90;;;;;;5086648;28;20455;-80
2023/09/25 02:07:32;;;;;;;3.90;3.20;;;18.50;99.90;;;;;;5088435;28;20572;-81
2023/09/25 02:09:58;;;;;;;4.03;3.33;;;18.50;99.90;;;;;;5087147;28;20576;-80
2023/09/25 02:12:23;;;;;;;3.73;3.27;;;18.50;99.90;;;;;;5087090;28;20499;-80
2023/09/25 02:14:51;;;;;;;6.33;3.10;;;18.60;99.90;;;;;;5088497;28;20435;-82
2023/09/25 02:17:16;;;;;;;4.30;3.33;;;18.60;99.90;;;;;;5087070;28;20277;-80
2023/09/25 02:19:42;;;;;;;3.90;3.50;;;18.60;99.90;;;;;;5087046;28;20530;-81
2023/09/25 02:22:08;;;;;;;3.70;3.30;;;18.60;99.90;;;;;;5086574;28;20486;-81
2023/09/25 02:24:34;;;;;;;3.87;3.50;;;18.50;99.90;;;;;;5088118;28;20225;-81
2023/09/25 02:27:00;;;;;;;3.10;2.80;;;18.50;99.90;;;;;;5087897;28;20636;-81
2023/09/25 02:29:25;;;;;;;3.73;3.43;;;18.50;99.90;;;;;;5088022;28;20609;-81
2023/09/25 02:31:51;;;;;;;3.33;3.03;;;18.50;99.90;;;;;;5087839;28;20183;-80
2023/09/25 02:34:17;;;;;;;3.83;3.53;;;18.50;99.90;;;;;;5088140;28;20186;-81
2023/09/25 02:36:43;;;;;;;3.97;3.40;;;18.50;99.90;;;;;;5088112;28;20518;-80
2023/09/25 02:39:10;;;;;;;4.23;3.83;;;18.50;99.90;;;;;;5086744;28;20237;-81
2023/09/25 02:41:36;;;;;;;4.40;3.33;;;18.50;99.90;;;;;;5086231;28;20438;-81
2023/09/25 02:44:02;;;;;;;4.30;3.90;;;18.50;99.90;;;;;;5086591;28;20556;-80
2023/09/25 02:46:28;;;;;;;7.03;4.20;;;18.60;99.90;;;;;;5087671;28;20505;-81
2023/09/25 02:48:53;;;;;;;5.00;3.90;;;18.60;99.90;;;;;;5087381;28;20305;-81
2023/09/25 02:51:19;;;;;;;3.60;3.20;;;18.60;99.90;;;;;;5086210;28;20541;-80
2023/09/25 02:53:45;;;;;;;3.90;3.60;;;18.60;99.90;;;;;;5086444;28;20239;-81
2023/09/25 02:56:11;;;;;;;6.53;3.60;;;18.60;99.90;;;;;;5087442;28;20564;-81
2023/09/25 02:58:37;;;;;;;2.87;2.67;;;18.60;99.90;;;;;;5086074;28;20182;-81
2023/09/25 03:01:03;;;;;;;3.97;3.67;;;18.70;99.90;;;;;;5085484;28;20786;-80
2023/09/25 03:03:32;;;;;;;5.93;3.90;;;18.70;99.90;;;;;;5086101;28;20200;-80
2023/09/25 03:05:58;;;;;;;3.60;3.30;;;18.80;99.90;;;;;;5086227;28;20190;-80
2023/09/25 03:08:24;;;;;;;4.17;3.77;;;18.80;99.90;;;;;;5087494;28;20405;-81
2023/09/25 03:10:49;;;;;;;3.50;2.73;;;18.80;99.90;;;;;;5085755;28;20209;-81
2023/09/25 03:13:15;;;;;;;3.53;3.23;;;18.90;99.90;;;;;;5086048;28;20190;-81
2023/09/25 03:15:41;;;;;;;4.70;3.23;;;18.90;99.90;;;;;;5085631;28;20629;-80
2023/09/25 03:18:07;;;;;;;4.60;3.50;;;18.90;99.90;;;;;;5085832;28;20661;-81
2023/09/25 03:20:33;;;;;;;4.10;3.67;;;18.90;99.90;;;;;;5087351;28;20200;-80
2023/09/25 03:22:59;;;;;;;4.20;3.80;;;18.90;99.90;;;;;;5085719;28;20682;-80
2023/09/25 03:25:24;;;;;;;2.60;2.40;;;18.80;99.90;;;;;;5085239;28;20479;-80
2023/09/25 03:27:50;;;;;;;4.10;3.33;;;18.90;99.90;;;;;;5085652;28;20409;-80
2023/09/25 03:30:16;;;;;;;4.50;2.87;;;18.90;99.90;;;;;;5085334;28;20625;-81
2023/09/25 03:32:43;;;;;;;2.73;2.53;;;19.00;99.90;;;;;;5086842;28;20210;-81
2023/09/25 03:35:10;;;;;;;3.10;2.77;;;19.00;99.90;;;;;;5086749;28;20446;-80
2023/09/25 03:37:36;;;;;;;3.50;3.13;;;19.10;99.90;;;;;;5086596;28;20897;-80
2023/09/25 03:40:07;;;;;;;3.93;3.50;;;19.10;99.90;;;;;;5084570;28;20995;-81
2023/09/25 03:42:34;;;;;;;3.77;3.10;;;19.10;99.90;;;;;;5086299;28;20411;-82
2023/09/25 03:44:59;;;;;;;3.37;3.07;;;19.10;99.90;;;;;;5086170;28;20425;-80
2023/09/25 03:47:25;;;;;;;3.90;3.50;;;19.20;99.90;;;;;;5084481;28;20431;-81
2023/09/25 03:49:50;;;;;;;5.50;3.30;;;19.10;99.90;;;;;;5084517;28;20230;-81
2023/09/25 03:52:16;;;;;;;3.10;2.80;;;19.10;99.90;;;;;;5085270;28;20235;-81
2023/09/25 03:54:42;;;;;;;3.53;2.90;;;19.00;99.90;;;;;;5086452;28;20223;-80
2023/09/25 03:57:08;;;;;;;3.80;3.40;;;19.00;99.90;;;;;;5084613;28;20715;-80
2023/09/25 03:59:33;;;;;;;50.13;26.77;;;19.00;99.90;;;;;;5083465;28;20203;-79
2023/09/25 04:01:59;;;;;;;8.73;6.07;;;18.90;99.90;;;;;;5084258;28;20190;-79
2023/09/25 04:04:25;;;;;;;4.63;3.60;;;19.00;99.90;;;;;;5084456;28;20259;-80
2023/09/25 04:06:50;;;;;;;4.13;3.80;;;19.00;99.90;;;;;;5084850;28;20631;-80
2023/09/25 04:09:16;;;;;;;4.50;3.00;;;19.00;99.90;;;;;;5086226;28;20210;-80
2023/09/25 04:11:42;;;;;;;4.20;3.80;;;19.00;99.90;;;;;;5084387;28;20780;-81
2023/09/25 04:14:07;;;;;;;6.63;3.50;;;19.00;99.90;;;;;;5085771;28;20432;-80
2023/09/25 04:16:33;;;;;;;6.13;3.70;;;19.00;99.90;;;;;;5077345;28;20181;-80
2023/09/25 04:18:59;;;;;;;9.63;3.33;;;19.00;99.90;;;;;;5074901;28;20674;-81
2023/09/25 04:21:26;;;;;;;4.03;3.47;;;19.00;99.90;;;;;;5075121;28;20213;-81
2023/09/25 04:23:51;;;;;;;3.67;3.37;;;19.00;99.90;;;;;;5075344;28;20408;-81
2023/09/25 04:26:17;;;;;;;5.23;3.73;;;19.00;99.90;;;;;;5074253;28;20519;-81
2023/09/25 04:28:43;;;;;;;4.50;3.60;;;19.00;99.90;;;;;;5076150;28;20567;-80
2023/09/25 04:31:12;;;;;;;5.23;3.60;;;18.90;99.90;;;;;;5077617;28;20216;-80
2023/09/25 04:33:38;;;;;;;3.90;3.50;;;18.90;99.90;;;;;;5074811;28;20748;-79
2023/09/25 04:36:08;;;;;;;3.80;3.20;;;19.00;99.90;;;;;;5074229;28;20948;-81
2023/09/25 04:38:35;;;;;;;4.37;3.80;;;19.00;99.90;;;;;;5073431;28;20941;-81
2023/09/25 04:41:00;;;;;;;3.73;3.37;;;19.10;99.90;;;;;;5074988;28;20447;-80
2023/09/25 04:43:26;;;;;;;6.07;3.90;;;19.10;99.90;;;;;;5072244;28;20408;-80
2023/09/25 04:45:52;;;;;;;4.00;3.60;;;19.10;99.90;;;;;;5074285;28;20204;-80
2023/09/25 04:48:19;;;;;;;3.37;3.07;;;19.10;99.90;;;;;;5071468;28;20199;-80
2023/09/25 04:50:44;;;;;;;3.77;3.37;;;19.10;99.90;;;;;;5072455;28;20486;-81
2023/09/25 04:53:10;;;;;;;4.93;3.90;;;19.10;99.90;;;;;;5071844;28;20421;-80
2023/09/25 04:55:38;;;;;;;4.80;3.13;;;19.10;99.90;;;;;;5072625;28;20226;-81
2023/09/25 04:58:04;;;;;;;3.77;3.43;;;19.10;99.90;;;;;;5074334;28;20552;-80
2023/09/25 05:00:32;;;;;;;5.33;3.40;;;19.00;99.90;;;;;;5072581;28;20456;-80
2023/09/25 05:02:59;;;;;;;3.70;3.40;;;19.00;99.90;;;;;;5074379;28;20175;-80
2023/09/25 05:05:25;;;;;;;3.43;3.13;;;19.00;99.90;;;;;;5072324;28;20460;-80
2023/09/25 05:07:53;;;;;;;4.30;3.37;;;19.00;99.90;;;;;;5075843;28;20913;-81
2023/09/25 05:10:22;;;;;;;4.20;3.60;;;19.00;99.90;;;;;;5078149;28;20470;-80
2023/09/25 05:12:49;;;;;;;3.10;2.80;;;19.10;99.90;;;;;;5083913;28;20420;-81
2023/09/25 05:15:16;;;;;;;4.20;3.80;;;19.10;99.90;;;;;;5085540;28;20928;-80
2023/09/25 05:17:43;;;;;;;4.27;3.43;;;19.10;99.90;;;;;;5084103;28;20440;-80
2023/09/25 05:20:11;;;;;;;4.20;3.80;;;19.10;99.90;;;;;;5081632;28;20454;-80
2023/09/25 05:22:38;;;;;;;4.73;3.87;;;19.10;99.90;;;;;;5082917;28;20404;-80
2023/09/25 05:25:07;;;;;;;3.80;3.50;;;19.10;99.90;;;;;;5082884;28;20435;-80
2023/09/25 05:27:34;;;;;;;4.57;3.80;;;19.20;99.90;;;;;;5082810;28;20510;-80
2023/09/25 05:30:00;;;;;;;4.33;3.73;;;19.20;99.90;;;;;;5087801;28;20470;-79
2023/09/25 05:32:25;;;;;;;6.50;4.00;;;19.20;99.90;;;;;;5087277;28;20423;-81
2023/09/25 05:34:51;;;;;;;5.43;3.47;;;19.30;99.90;;;;;;5085091;28;20475;-80
2023/09/25 05:37:16;;;;;;;4.67;3.80;;;19.30;99.90;;;;;;5085801;28;20648;-81
2023/09/25 05:39:42;;;;;;;6.80;5.47;;;19.30;99.90;;;;;;5086148;28;20208;-84
2023/09/25 05:42:08;;;;;;;3.90;3.50;;;19.40;99.90;;;;;;5087677;28;20267;-80
2023/09/25 05:44:33;;;;;;;4.10;3.70;;;19.40;99.90;;;;;;5086163;28;20427;-81
2023/09/25 05:46:59;;;;;;;4.53;3.97;;;19.40;99.90;;;;;;5085125;28;20191;-83
2023/09/25 05:49:26;;;;;;;3.40;3.03;;;19.50;99.90;;;;;;5084308;28;20199;-81
2023/09/25 05:51:53;;;;;;;4.57;4.10;;;19.50;99.90;;;;;;5085736;28;20423;-81
2023/09/25 05:54:21;;;;;;;5.00;3.73;;;19.50;99.90;;;;;;5085444;28;20471;-81
2023/09/25 05:56:50;;;;;;;7.17;3.67;;;19.60;99.90;;;;;;5087149;28;20424;-82
2023/09/25 05:59:16;;;;;;;3.20;2.90;;;19.60;99.90;;;;;;5085454;28;20585;-81
2023/09/25 06:01:42;;;;;;;3.90;3.47;;;19.60;99.90;;;;;;5086411;28;20939;-81
2023/09/25 06:04:09;;;;;;;3.50;3.20;;;19.60;99.90;;;;;;5083533;28;20648;-84
2023/09/25 06:06:35;;;;;;;4.13;3.13;;;19.60;99.90;;;;;;5082943;28;20431;-81
2023/09/25 06:09:02;;;;;;;3.87;3.20;;;19.60;99.90;;;;;;5104155;27;20471;-83
2023/09/25 06:11:28;;;;;;;4.33;3.50;;;19.70;99.90;;;;;;5086512;28;20936;-84
2023/09/25 06:13:54;;;;;;;3.33;2.93;;;19.70;99.90;;;;;;5086388;28;20644;-82
2023/09/25 06:16:20;;;;;;;4.13;3.70;;;19.70;99.90;;;;;;5086488;28;20455;-79
2023/09/25 06:18:47;;;;;;;4.13;3.67;;;19.80;99.90;;;;;;5084484;28;20416;-81
2023/09/25 06:21:13;;;;;;;3.83;3.43;;;19.80;99.90;;;;;;5085037;28;20455;-84
2023/09/25 06:23:39;;;;;;;4.10;3.67;;;19.80;99.90;;;;;;5079871;28;20793;-82
2023/09/25 06:26:06;;;;;;;4.17;3.77;;;19.80;99.90;;;;;;5081909;28;20892;-79
2023/09/25 06:28:32;;;;;;;3.97;3.60;;;19.80;99.90;;;;;;5082599;28;20774;-86
2023/09/25 06:30:59;;;;;;;3.70;3.40;;;19.90;99.90;;;;;;5083732;28;20487;-80
2023/09/25 06:33:25;;;;;;;4.70;3.93;;;19.90;99.90;;;;;;5081716;28;20463;-86
2023/09/25 06:35:52;;;;;;;5.17;4.20;;;19.80;99.90;;;;;;5082915;28;20485;-85
2023/09/25 06:38:19;;;;;;;4.13;3.73;;;19.90;99.90;;;;;;5076620;28;20437;-79
2023/09/25 06:40:46;;;;;;;4.40;4.00;;;19.90;99.90;;;;;;5082498;28;20467;-86
2023/09/25 06:43:12;;;;;;;7.87;5.37;;;19.90;99.90;;;;;;5080353;28;20415;-80
2023/09/25 06:45:40;;;;;;;7.10;5.23;;;20.00;99.90;;;;;;5078729;28;21270;-86
2023/09/25 06:48:06;;;;;;;5.07;4.30;;;20.00;99.90;;;;;;5083816;28;20404;-79
2023/09/25 06:50:32;;;;;;;4.33;3.60;;;20.00;99.90;;;;;;5079919;28;21015;-80
2023/09/25 06:52:58;;;;;;;5.43;3.87;;;20.10;99.90;;;;;;5077251;28;20404;-80
2023/09/25 06:55:24;;;;;;;4.53;3.77;;;20.10;99.90;;;;;;5080824;28;20557;-86
2023/09/25 06:57:50;;;;;;;6.53;4.33;;;20.20;99.90;;;;;;5083218;28;20818;-80
2023/09/25 07:00:17;;;;;;;5.23;4.40;;;20.20;99.90;;;;;;5082620;28;20421;-79
2023/09/25 07:02:44;;;;;;;5.67;4.40;;;20.20;99.90;;;;;;5084400;28;20419;-85
2023/09/25 07:05:09;;;;;;;7.13;4.77;;;20.20;99.90;;;;;;5079542;28;20448;-85
2023/09/25 07:07:36;;;;;;;5.57;4.63;;;20.20;99.90;;;;;;5083223;28;20894;-80
2023/09/25 07:10:05;;;;;;;5.00;4.00;;;20.30;99.90;;;;;;5077556;28;20225;-85
2023/09/25 07:12:31;;;;;;;6.20;4.43;;;20.20;99.90;;;;;;5079337;28;20421;-86
2023/09/25 07:14:58;;;;;;;6.53;4.20;;;20.30;99.90;;;;;;5078253;28;21234;-86
2023/09/25 07:17:24;;;;;;;5.10;4.60;;;20.30;99.90;;;;;;5078608;28;20192;-86
2023/09/25 07:19:55;;;;;;;6.97;4.57;;;20.40;99.90;;;;;;5075120;28;20552;-86
2023/09/25 07:22:22;;;;;;;5.67;4.87;;;20.40;99.90;;;;;;5064393;28;20437;-86
2023/09/25 07:24:48;;;;;;;5.93;5.20;;;20.40;99.90;;;;;;5075687;28;20480;-86
2023/09/25 07:27:14;;;;;;;5.13;4.63;;;20.40;99.90;;;;;;5077971;28;20509;-80
2023/09/25 07:29:43;;;;;;;5.43;4.30;;;20.40;99.90;;;;;;5076837;28;20499;-80
2023/09/25 07:32:10;;;;;;;5.03;4.43;;;20.40;99.90;;;;;;5074591;28;20425;-80
2023/09/25 07:34:36;;;;;;;5.90;4.17;;;20.40;99.90;;;;;;5078574;28;21027;-86
2023/09/25 07:37:04;;;;;;;8.90;6.13;;;20.40;99.90;;;;;;5077571;28;20828;-86
2023/09/25 07:39:30;;;;;;;7.07;4.67;;;20.40;99.90;;;;;;5078117;28;20732;-86
2023/09/25 07:41:59;;;;;;;5.07;4.10;;;20.40;99.90;;;;;;5078459;28;20848;-85
2023/09/25 07:44:26;;;;;;;5.87;5.10;;;20.50;99.90;;;;;;5070105;28;20423;-86
2023/09/25 07:46:57;;;;;;;10.70;5.10;;;20.40;99.90;;;;;;5076840;28;20458;-80
2023/09/25 07:49:23;;;;;;;6.53;4.57;;;20.40;99.90;;;;;;5080927;28;20555;-81
2023/09/25 07:51:51;;;;;;;5.70;4.73;;;20.40;99.90;;;;;;5076101;28;20787;-85
2023/09/25 07:54:17;;;;;;;4.97;4.47;;;20.40;99.90;;;;;;5079241;28;20541;-84
2023/09/25 07:56:42;;;;;;;5.80;5.07;;;20.50;99.90;;;;;;5080675;28;20436;-80
2023/09/25 07:59:08;;;;;;;5.23;4.70;;;20.50;99.90;;;;;;5080952;28;20409;-86
2023/09/25 08:01:35;;;;;;;5.60;4.60;;;20.50;99.90;;;;;;5080816;28;20544;-86
2023/09/25 08:04:01;;;;;;;6.13;5.27;;;20.60;99.90;;;;;;5077033;28;20653;-85
2023/09/25 08:06:27;;;;;;;5.07;4.00;;;20.50;99.90;;;;;;5075878;28;20493;-81
2023/09/25 08:08:59;;;;;;;8.43;5.83;;;20.60;99.90;;;;;;5076872;28;20412;-81
2023/09/25 08:11:26;;;;;;;6.07;5.23;;;20.60;99.90;;;;;;5072370;28;20564;-80
2023/09/25 08:13:54;;;;;;;6.50;5.27;;;20.60;99.90;;;;;;5078625;28;20504;-80
2023/09/25 08:16:22;;;;;;;6.03;5.00;;;20.70;99.90;;;;;;5079522;28;20479;-81
2023/09/25 08:18:48;;;;;;;6.33;5.17;;;20.70;99.90;;;;;;5070061;28;20421;-81
2023/09/25 08:21:14;;;;;;;10.70;5.17;;;20.70;99.90;;;;;;5074558;28;20461;-86
2023/09/25 08:23:39;;;;;;;6.23;4.97;;;20.70;99.90;;;;;;5079643;28;21008;-81
2023/09/25 08:26:05;;;;;;;6.43;4.90;;;20.70;99.90;;;;;;5080421;28;20302;-85
2023/09/25 08:28:32;;;;;;;5.20;4.60;;;20.80;99.90;;;;;;5076927;28;20548;-80
2023/09/25 08:30:58;;;;;;;6.67;4.83;;;20.80;99.90;;;;;;5079563;28;20289;-80
2023/09/25 08:33:24;;;;;;;5.50;4.90;;;20.80;99.90;;;;;;5077394;28;20409;-85
2023/09/25 08:35:51;;;;;;;6.47;5.27;;;20.80;99.90;;;;;;5073389;28;20214;-83
2023/09/25 08:38:16;;;;;;;6.10;4.97;;;20.80;99.90;;;;;;5076156;28;20247;-86
2023/09/25 08:40:47;;;;;;;6.60;4.90;;;20.90;99.90;;;;;;5073443;28;20547;-81
2023/09/25 08:43:13;;;;;;;6.43;5.40;;;20.90;99.90;;;;;;5076996;28;20191;-81
2023/09/25 08:45:40;;;;;;;4.70;3.90;;;21.00;99.90;;;;;;5076610;28;21022;-81
2023/09/25 08:48:10;;;;;;;6.03;4.60;;;21.10;99.90;;;;;;5074059;28;20697;-81
2023/09/25 08:50:38;;;;;;;5.17;4.67;;;21.20;99.90;;;;;;5071651;28;20480;-81
2023/09/25 08:53:04;;;;;;;4.40;3.97;;;21.30;99.90;;;;;;5074753;28;20837;-80
2023/09/25 08:55:31;;;;;;;5.53;4.80;;;21.30;99.90;;;;;;5079263;28;20476;-81
2023/09/25 08:57:57;;;;;;;4.87;4.37;;;21.40;99.90;;;;;;5092552;28;20245;-87
2023/09/25 09:00:24;;;;;;;4.50;4.10;;;21.40;99.90;;;;;;5078786;28;20445;-86
2023/09/25 09:02:49;;;;;;;6.27;5.13;;;21.40;99.90;;;;;;5077300;28;20177;-87
2023/09/25 09:05:16;;;;;;;5.37;4.57;;;21.40;99.90;;;;;;5077941;28;21103;-86
2023/09/25 09:08:03;;;;;;;4.97;3.70;;;21.40;99.90;;;;;;5079002;28;20208;-81
2023/09/25 09:10:40;;;;;;;4.70;4.20;;;21.50;99.90;;;;;;5081301;28;20484;-87
2023/09/25 09:13:11;;;;;;;6.30;4.77;;;21.50;99.90;;;;;;5081005;28;20830;-87
2023/09/25 09:15:38;;;;;;;3.87;3.50;;;21.60;99.90;;;;;;5079483;28;20464;-81
2023/09/25 09:18:19;;;;;;;4.77;3.73;;;21.60;99.90;;;;;;5080574;28;20710;-81
2023/09/25 09:20:45;;;;;;;5.87;4.40;;;21.60;99.90;;;;;;5078067;28;20468;-87
2023/09/25 09:23:10;;;;;;;4.27;3.87;;;21.70;99.90;;;;;;5072872;28;20420;-82
2023/09/25 09:25:36;;;;;;;3.90;3.60;;;21.70;99.90;;;;;;5080394;28;20232;-87
2023/09/25 09:28:08;;;;;;;168.00;81.33;;;21.70;99.90;;;;;;5084504;28;20180;-80
2023/09/25 09:30:36;;;;;;;9.57;8.50;;;21.80;99.90;;;;;;5081045;28;20484;-80
2023/09/25 09:33:02;;;;;;;4.20;3.80;;;21.80;99.90;;;;;;5085495;28;20420;-87
2023/09/25 09:35:28;;;;;;;6.13;4.53;;;21.90;99.90;;;;;;5086395;28;20469;-86
2023/09/25 09:37:57;;;;;;;4.80;4.40;;;21.90;99.90;;;;;;5085177;28;20432;-81
2023/09/25 09:40:25;;;;;;;4.27;3.60;;;22.00;99.90;;;;;;5086190;28;20565;-87
2023/09/25 09:42:52;;;;;;;5.73;4.33;;;22.00;99.90;;;;;;5084046;28;20988;-81
2023/09/25 09:45:18;;;;;;;4.60;3.90;;;22.10;99.90;;;;;;5085004;28;20645;-81
2023/09/25 09:47:46;;;;;;;3.77;3.20;;;22.10;99.90;;;;;;5079657;28;20481;-80
2023/09/25 09:50:14;;;;;;;4.47;4.07;;;22.20;99.90;;;;;;5081775;28;20479;-87
2023/09/25 09:52:42;;;;;;;5.50;3.90;;;22.20;99.90;;;;;;5072006;28;20482;-81
2023/09/25 09:55:08;;;;;;;4.10;3.60;;;22.30;99.90;;;;;;5073456;28;20555;-87
2023/09/25 09:57:35;;;;;;;3.50;3.00;;;22.30;99.90;;;;;;5079647;28;20993;-85
2023/09/25 10:00:00;;;;;;;3.53;3.23;;;22.30;99.90;;;;;;5083753;28;20455;-80
2023/09/25 10:02:30;;;;;;;5.70;4.10;;;22.30;99.90;;;;;;5080196;28;20425;-80
2023/09/25 10:04:57;;;;;;;4.97;3.07;;;22.40;99.90;;;;;;5079186;28;20831;-80
2023/09/25 10:07:23;;;;;;;4.43;3.63;;;22.40;99.90;;;;;;5077260;28;20802;-80
2023/09/25 10:10:04;;;;;;;6.33;3.40;;;22.40;99.90;;;;;;5078531;28;20483;-80
2023/09/25 10:12:50;;;;;;;4.17;2.90;;;22.50;99.90;;;;;;5071998;28;20428;-80
2023/09/25 10:15:25;;;;;;;3.33;3.03;;;22.50;99.90;;;;;;5076321;28;20453;-86
2023/09/25 10:17:53;;;;;;;3.50;3.20;;;22.60;99.90;;;;;;5075252;28;20970;-86
2023/09/25 10:20:31;;;;;;;3.97;3.20;;;22.70;99.90;;;;;;5075095;28;20452;-79
2023/09/25 10:23:05;;;;;;;3.73;3.10;;;22.80;99.90;;;;;;5075416;28;20422;-83
2023/09/25 10:26:02;;;;;;;3.50;3.17;;;22.90;99.90;;;;;;5069871;28;20536;-80
2023/09/25 10:28:36;;;;;;;4.83;3.40;;;22.90;99.90;;;;;;5064218;28;20561;-83
2023/09/25 10:31:03;;;;;;;7.83;3.97;;;22.90;99.90;;;;;;5075986;28;21035;-83
2023/09/25 10:33:32;;;;;;;3.90;3.23;;;22.90;99.90;;;;;;5071273;28;20974;-80
2023/09/25 10:36:03;;;;;;;3.10;2.80;;;23.00;99.90;;;;;;5069107;28;20608;-80
2023/09/25 10:38:32;;;;;;;3.17;2.90;;;23.00;99.90;;;;;;5061301;28;20436;-84
2023/09/25 10:41:03;;;;;;;2.70;2.50;;;23.10;99.90;;;;;;5066164;28;21150;-84
2023/09/25 10:43:29;;;;;;;3.30;3.00;;;23.20;99.90;;;;;;5073826;28;20945;-80
2023/09/25 10:45:55;;;;;;;3.73;2.57;;;23.30;99.90;;;;;;5067263;28;20459;-84
2023/09/25 10:48:24;;;;;;;3.80;2.80;;;23.30;99.90;;;;;;5061810;28;20763;-81
2023/09/25 10:50:50;;;;;;;3.60;3.10;;;23.30;99.90;;;;;;5071457;28;20506;-84
2023/09/25 10:53:17;;;;;;;2.90;2.37;;;23.40;99.90;;;;;;5073940;28;20439;-84
2023/09/25 10:55:43;;;;;;;2.60;2.10;;;23.50;99.90;;;;;;5071025;28;20543;-81
2023/09/25 10:58:14;;;;;;;2.97;2.33;;;23.50;99.90;;;;;;5068908;28;21011;-80
2023/09/25 11:00:41;;;;;;;4.73;2.20;;;23.60;99.90;;;;;;5066755;28;20585;-80
2023/09/25 11:03:08;;;;;;;4.50;2.40;;;23.70;99.90;;;;;;5069823;28;20400;-83
2023/09/25 11:05:38;;;;;;;2.63;2.43;;;23.70;99.90;;;;;;5070881;28;20477;-83
2023/09/25 11:08:05;;;;;;;2.70;2.33;;;23.70;99.90;;;;;;5068465;28;20410;-80
2023/09/25 11:10:35;;;;;;;2.90;2.70;;;23.80;99.90;;;;;;5071859;28;20488;-80
2023/09/25 11:13:02;;;;;;;4.97;2.30;;;23.80;99.90;;;;;;5074270;28;20964;-84
2023/09/25 11:15:28;;;;;;;3.03;2.40;;;23.90;99.90;;;;;;5071054;28;20472;-80
2023/09/25 11:17:57;;;;;;;1.73;1.63;;;23.90;99.90;;;;;;5072147;28;21067;-83
2023/09/25 11:20:29;;;;;;;3.10;2.90;;;24.00;99.90;;;;;;5072555;28;20456;-83
2023/09/25 11:23:08;;;;;;;3.10;2.50;;;24.00;99.90;;;;;;5069909;28;20448;-83
2023/09/25 11:25:46;;;;;;;4.30;2.60;;;24.00;99.90;;;;;;5074391;28;20447;-80
2023/09/25 11:28:16;;;;;;;2.40;2.20;;;24.10;99.90;;;;;;5071959;28;21062;-80
2023/09/25 11:30:46;;;;;;;3.37;2.73;;;24.10;99.90;;;;;;5074994;28;20659;-84
2023/09/25 11:33:15;;;;;;;2.97;2.33;;;24.10;99.90;;;;;;5073361;28;20447;-79
2023/09/25 11:35:41;;;;;;;2.87;2.57;;;24.20;99.90;;;;;;5073402;28;22442;-79
2023/09/25 11:38:15;;;;;;;3.17;2.87;;;24.20;99.90;;;;;;5074885;28;20416;-83
2023/09/25 11:40:41;;;;;;;3.73;3.33;;;24.30;99.90;;;;;;5071515;28;20552;-80
2023/09/25 11:43:07;;;;;;;3.80;2.67;;;24.30;99.90;;;;;;5077155;28;20524;-79
2023/09/25 11:45:36;;;;;;;6.97;2.97;;;24.40;99.90;;;;;;5076278;28;20457;-83
2023/09/25 11:48:03;;;;;;;2.60;2.40;;;24.40;99.90;;;;;;5076673;28;20721;-79
2023/09/25 11:50:29;;;;;;;3.30;3.00;;;24.40;99.90;;;;;;5080293;28;20488;-83
2023/09/25 11:52:55;;;;;;;3.17;2.53;;;24.40;99.90;;;;;;5078939;28;21105;-80
2023/09/25 11:55:21;;;;;;;2.83;2.63;;;24.40;99.90;;;;;;5080032;28;20556;-80
2023/09/25 11:57:47;;;;;;;4.17;3.23;;;24.50;99.90;;;;;;5078642;28;20401;-83
2023/09/25 12:00:15;;;;;;;3.70;3.40;;;24.60;99.90;;;;;;5076763;28;20215;-83
2023/09/25 12:02:48;;;;;;;4.03;3.53;;;24.60;99.90;;;;;;5077481;28;20435;-79
2023/09/25 12:05:15;;;;;;;3.30;3.00;;;24.60;99.90;;;;;;5076686;28;21023;-84
2023/09/25 12:07:41;;;;;;;3.10;2.80;;;24.60;99.90;;;;;;5080662;28;20793;-80
2023/09/25 12:10:08;;;;;;;4.00;3.30;;;24.60;99.90;;;;;;5075790;28;20474;-83
2023/09/25 12:12:36;;;;;;;4.07;3.03;;;24.70;99.90;;;;;;5061092;28;20456;-83
2023/09/25 12:15:06;;;;;;;4.63;3.07;;;24.70;99.90;;;;;;5080887;28;20484;-84
2023/09/25 12:17:32;;;;;;;2.97;2.77;;;24.70;99.90;;;;;;5081769;28;20445;-83
2023/09/25 12:20:05;;;;;;;3.60;2.70;;;24.70;99.90;;;;;;5081015;28;20574;-83
2023/09/25 12:22:31;;;;;;;4.80;3.40;;;24.80;99.90;;;;;;5079753;28;20433;-83
2023/09/25 12:24:57;;;;;;;4.10;3.10;;;24.80;99.90;;;;;;5079243;28;20712;-80
2023/09/25 12:27:23;;;;;;;5.23;2.90;;;24.90;99.90;;;;;;5080242;28;21172;-83
2023/09/25 12:29:48;;;;;;;4.37;2.70;;;24.90;99.90;;;;;;5073243;28;20320;-80
2023/09/25 12:32:14;;;;;;;6.50;3.07;;;25.00;99.90;;;;;;5076129;28;20172;-83
2023/09/25 12:34:40;;;;;;;3.30;3.00;;;25.00;99.90;;;;;;5081306;28;20204;-80
2023/09/25 12:37:06;;;;;;;3.47;2.70;;;25.00;99.90;;;;;;5081268;28;20421;-84
2023/09/25 12:39:34;;;;;;;3.30;2.80;;;25.00;99.90;;;;;;5078656;28;20400;-84
2023/09/25 12:41:59;;;;;;;3.10;2.80;;;25.10;99.90;;;;;;5072846;28;20417;-84
2023/09/25 12:44:25;;;;;;;4.63;2.90;;;25.20;99.90;;;;;;5076527;28;20753;-80